CZSJ

Sandy Lake Airport

Sandy Lake, Ontario, Canada
METAR CZSJ 181608Z AUTO 23006G16KT 200V270 9SM OVC014 M02/M03 A2915 RMK SLP892
Observed Flight Rules
Dec-18 @ 16:08 UTC (33 minutes ago) Marginal Visual Flight Rules
Wind Visibility Clouds
230° at 6 knots
 Gusting to 16 knots
9 miles
  • Overcast at 1,400' AGL
Temperatures Readings
Current -2°C / 28°F
Dewpoint -3°C / 27°F
Humidity 93%
Altimeter 29.15" Hg
Pressure 989.2 hPa
Elevation 290
METAR CZSJ 181608Z AUTO 23006G16KT 200V270 9SM OVC014 M02/M03 A2915 RMK SLP892
Observed Flight Rules
Dec-18 @ 16:08 UTC
(33 minutes ago)
MVFR
Wind Visibility
230° at 6 knots
 Gusting to 16 knots
9 miles
Clouds
  • Overcast at 1,400' AGL
Temperature Dewpoint
-2°C / 28°F -3°C / 27°F
Humidity Altimeter Pressure
93% 29.15" Hg 989.2 hPa